(°C)
18°
19°
20°
21°
22°
23°
24°
(°C)
17°
18°
19°
20°
21°
22°
22°
KD
KKD
K
KKD
KD
DKD
DKD
(km/saat)
10-14
10-15
10-15
9-15
10-14
12-17
13-16
(mm)
0
0
0
0
0
0
0
(%)
32
37
25
21
15
14
9

Güneşin açısı

/ 5.8°
sun-icon
UV 5
07:50
20:06
Dolunay (187°)
20:40
08:04

Alcantarilla (LERI) için METAR

Zaman Koşullar Sıcaklık/
Çiy noktası
Rüzgar Görünürlük Hava Bulutlar Basınç Değiştir Ham
VFR 18°C / 16°C variable 0kt >10km - Few Clouds 1500ft 1020 No Significant change LERI 210600Z 00000KT 9999 FEW015 SCT020 18/16 Q1020 NOSIG
VFR 22°C / 19°C 150º variable 120º to 180º 6kt >10km Light Rain 1.00mm precipitation Vertical Visibility of 0ft. 1017 No Significant change LERI 201800Z 15006KT 120V180 9999 -RA FEW032 BKN050 22/19 Q1017 NOSIG
VFR 24°C / 19°C 180º variable 100º to 240º 6kt >10km - Scattered Clouds 3500ft 1017 No Significant change LERI 201730Z 18006KT 100V240 9999 SCT035 FEW040TCU 24/19 Q1017 NOSIG
VFR 24°C / 17°C 100º 5kt >10km Thunderstorm Vertical Visibility of 0ft. 1016 No Significant change LERI 201700Z 10005KT 9999 TS FEW023 SCT060CB 24/17 Q1016 NOSIG
VFR 24°C / 18°C 100º variable 070º to 140º 9kt >10km Light Thunderstorm Rain 3.00mm precipitation Vertical Visibility of 0ft. 1016 No Significant change LERI 201630Z 10009KT 070V140 9999 -TSRA FEW045 SCT057CB 24/18 Q1016 NOSIG
VFR 25°C / 17°C 110º variable 080º to 160º 9kt >10km Light Thunderstorm Rain 3.00mm precipitation Vertical Visibility of 0ft. 1016 No Significant change LERI 201600Z 11009KT 080V160 9999 -TSRA SCT050 FEW060CB 25/17 Q1016 NOSIG
VFR 26°C / 17°C 110º variable 080º to 160º 11kt >10km Light Thunderstorm Rain 3.00mm precipitation Vertical Visibility of 0ft. 1016 No Significant change LERI 201552Z 11011KT 080V160 9999 -TSRA SCT049 FEW060CB 26/17 Q1016 NOSIG
VFR 26°C / 17°C 130º 14kt >10km Light Showers Rain 3.00mm precipitation Vertical Visibility of 0ft. 1016 No Significant change LERI 201530Z 13014KT 9999 -SHRA FEW035 SCT050TCU 26/17 Q1016 NOSIG
VFR 27°C / 16°C 120º variable 090º to 160º 14kt >10km - Few Clouds 4800ft 1016 No Significant change LERI 201500Z 12014KT 090V160 9999 FEW048TCU 27/16 Q1016 NOSIG
VFR 29°C / 16°C 120º variable 080º to 150º 12kt >10km - Scattered Clouds 5000ft 1016 No Significant change LERI 201430Z 12012KT 080V150 9999 SCT050 29/16 Q1016 NOSIG
VFR 28°C / 16°C 100º variable 070º to 140º 8kt >10km - Few Clouds 5900ft 1016 No Significant change LERI 201400Z 10008KT 070V140 9999 FEW059 28/16 Q1016 NOSIG
VFR 29°C / 16°C 140º variable 090º to 230º 5kt >10km - Few Clouds 5300ft 1016 No Significant change LERI 201330Z 14005KT 090V230 9999 FEW053 29/16 Q1016 NOSIG
VFR 28°C / 16°C 100º variable 060º to 150º 7kt >10km - Few Clouds 4800ft 1017 No Significant change LERI 201300Z 10007KT 060V150 9999 FEW048 28/16 Q1017 NOSIG
VFR 29°C / 16°C 70º variable 010º to 150º 5kt >10km - Few Clouds 4700ft 1017 No Significant change LERI 201230Z 07005KT 010V150 9999 FEW047 29/16 Q1017 NOSIG
VFR 29°C / 16°C variable 4kt >10km - Few Clouds 4000ft 1018 No Significant change LERI 201200Z VRB04KT 9999 FEW040 29/16 Q1018 NOSIG
VFR 27°C / 16°C 100º variable 050º to 190º 6kt Gust 17kt >10km - Few Clouds 3800ft 1018 No Significant change LERI 201130Z 10006G17KT 050V190 9999 FEW038 27/16 Q1018 NOSIG
VFR 27°C / 17°C variable 3kt >10km - Few Clouds 3800ft 1019 No Significant change LERI 201100Z VRB03KT 9999 FEW038 27/17 Q1019 NOSIG
VFR 26°C / 16°C 10º variable 270º to 080º 4kt >10km - Few Clouds 3800ft 1019 No Significant change LERI 201030Z 01004KT 270V080 9999 FEW038 26/16 Q1019 NOSIG
VFR 25°C / 16°C variable 3kt >10km - Few Clouds 3200ft 1019 No Significant change LERI 201000Z VRB03KT 9999 FEW032 SCT036 25/16 Q1019 NOSIG
VFR 25°C / 16°C 60º variable 360º to 160º 4kt >10km - Scattered Clouds 3200ft 1019 No Significant change LERI 200930Z 06004KT 360V160 9999 SCT032 25/16 Q1019 NOSIG
VFR 24°C / 16°C variable 2kt >10km - Scattered Clouds 3000ft 1020 No Significant change LERI 200900Z VRB02KT 9999 SCT030 24/16 Q1020 NOSIG
VFR 24°C / 16°C variable 0kt >10km - Scattered Clouds 3000ft 1019 No Significant change LERI 200830Z 00000KT 9999 SCT030 24/16 Q1019 NOSIG
VFR 23°C / 16°C variable 1kt >10km - Few Clouds 2400ft 1019 No Significant change LERI 200800Z VRB01KT 9999 FEW024 23/16 Q1019 NOSIG
VFR 21°C / 16°C variable 0kt >10km - Scattered Clouds 2400ft 1019 No Significant change LERI 200730Z 00000KT 9999 SCT024 SCT039 21/16 Q1019 NOSIG

VFR

18°C / 16°C

[Daha fazla]
Rüzgar variable 0kt
Görünürlük >10km
Hava -
Bulutlar Few Clouds 1500ft
Basınç 1020
Değiştir No Significant change
Ham LERI 210600Z 00000KT 9999 FEW015 SCT020 18/16 Q1020 NOSIG

VFR

22°C / 19°C

[Daha fazla]
Rüzgar 150º variable 120º to 180º 6kt
Görünürlük >10km
Hava Light Rain 1.00mm precipitation
Bulutlar Vertical Visibility of 0ft.
Basınç 1017
Değiştir No Significant change
Ham LERI 201800Z 15006KT 120V180 9999 -RA FEW032 BKN050 22/19 Q1017 NOSIG

VFR

24°C / 19°C

[Daha fazla]
Rüzgar 180º variable 100º to 240º 6kt
Görünürlük >10km
Hava -
Bulutlar Scattered Clouds 3500ft
Basınç 1017
Değiştir No Significant change
Ham LERI 201730Z 18006KT 100V240 9999 SCT035 FEW040TCU 24/19 Q1017 NOSIG

VFR

24°C / 17°C

[Daha fazla]
Rüzgar 100º 5kt
Görünürlük >10km
Hava Thunderstorm
Bulutlar Vertical Visibility of 0ft.
Basınç 1016
Değiştir No Significant change
Ham LERI 201700Z 10005KT 9999 TS FEW023 SCT060CB 24/17 Q1016 NOSIG

VFR

24°C / 18°C

[Daha fazla]
Rüzgar 100º variable 070º to 140º 9kt
Görünürlük >10km
Hava Light Thunderstorm Rain 3.00mm precipitation
Bulutlar Vertical Visibility of 0ft.
Basınç 1016
Değiştir No Significant change
Ham LERI 201630Z 10009KT 070V140 9999 -TSRA FEW045 SCT057CB 24/18 Q1016 NOSIG

VFR

25°C / 17°C

[Daha fazla]
Rüzgar 110º variable 080º to 160º 9kt
Görünürlük >10km
Hava Light Thunderstorm Rain 3.00mm precipitation
Bulutlar Vertical Visibility of 0ft.
Basınç 1016
Değiştir No Significant change
Ham LERI 201600Z 11009KT 080V160 9999 -TSRA SCT050 FEW060CB 25/17 Q1016 NOSIG

VFR

26°C / 17°C

[Daha fazla]
Rüzgar 110º variable 080º to 160º 11kt
Görünürlük >10km
Hava Light Thunderstorm Rain 3.00mm precipitation
Bulutlar Vertical Visibility of 0ft.
Basınç 1016
Değiştir No Significant change
Ham LERI 201552Z 11011KT 080V160 9999 -TSRA SCT049 FEW060CB 26/17 Q1016 NOSIG

VFR

26°C / 17°C

[Daha fazla]
Rüzgar 130º 14kt
Görünürlük >10km
Hava Light Showers Rain 3.00mm precipitation
Bulutlar Vertical Visibility of 0ft.
Basınç 1016
Değiştir No Significant change
Ham LERI 201530Z 13014KT 9999 -SHRA FEW035 SCT050TCU 26/17 Q1016 NOSIG

VFR

27°C / 16°C

[Daha fazla]
Rüzgar 120º variable 090º to 160º 14kt
Görünürlük >10km
Hava -
Bulutlar Few Clouds 4800ft
Basınç 1016
Değiştir No Significant change
Ham LERI 201500Z 12014KT 090V160 9999 FEW048TCU 27/16 Q1016 NOSIG

VFR

29°C / 16°C

[Daha fazla]
Rüzgar 120º variable 080º to 150º 12kt
Görünürlük >10km
Hava -
Bulutlar Scattered Clouds 5000ft
Basınç 1016
Değiştir No Significant change
Ham LERI 201430Z 12012KT 080V150 9999 SCT050 29/16 Q1016 NOSIG

VFR

28°C / 16°C

[Daha fazla]
Rüzgar 100º variable 070º to 140º 8kt
Görünürlük >10km
Hava -
Bulutlar Few Clouds 5900ft
Basınç 1016
Değiştir No Significant change
Ham LERI 201400Z 10008KT 070V140 9999 FEW059 28/16 Q1016 NOSIG

VFR

29°C / 16°C

[Daha fazla]
Rüzgar 140º variable 090º to 230º 5kt
Görünürlük >10km
Hava -
Bulutlar Few Clouds 5300ft
Basınç 1016
Değiştir No Significant change
Ham LERI 201330Z 14005KT 090V230 9999 FEW053 29/16 Q1016 NOSIG

VFR

28°C / 16°C

[Daha fazla]
Rüzgar 100º variable 060º to 150º 7kt
Görünürlük >10km
Hava -
Bulutlar Few Clouds 4800ft
Basınç 1017
Değiştir No Significant change
Ham LERI 201300Z 10007KT 060V150 9999 FEW048 28/16 Q1017 NOSIG

VFR

29°C / 16°C

[Daha fazla]
Rüzgar 70º variable 010º to 150º 5kt
Görünürlük >10km
Hava -
Bulutlar Few Clouds 4700ft
Basınç 1017
Değiştir No Significant change
Ham LERI 201230Z 07005KT 010V150 9999 FEW047 29/16 Q1017 NOSIG

VFR

29°C / 16°C

[Daha fazla]
Rüzgar variable 4kt
Görünürlük >10km
Hava -
Bulutlar Few Clouds 4000ft
Basınç 1018
Değiştir No Significant change
Ham LERI 201200Z VRB04KT 9999 FEW040 29/16 Q1018 NOSIG

VFR

27°C / 16°C

[Daha fazla]
Rüzgar 100º variable 050º to 190º 6kt Gust 17kt
Görünürlük >10km
Hava -
Bulutlar Few Clouds 3800ft
Basınç 1018
Değiştir No Significant change
Ham LERI 201130Z 10006G17KT 050V190 9999 FEW038 27/16 Q1018 NOSIG

VFR

27°C / 17°C

[Daha fazla]
Rüzgar variable 3kt
Görünürlük >10km
Hava -
Bulutlar Few Clouds 3800ft
Basınç 1019
Değiştir No Significant change
Ham LERI 201100Z VRB03KT 9999 FEW038 27/17 Q1019 NOSIG

VFR

26°C / 16°C

[Daha fazla]
Rüzgar 10º variable 270º to 080º 4kt
Görünürlük >10km
Hava -
Bulutlar Few Clouds 3800ft
Basınç 1019
Değiştir No Significant change
Ham LERI 201030Z 01004KT 270V080 9999 FEW038 26/16 Q1019 NOSIG

VFR

25°C / 16°C

[Daha fazla]
Rüzgar variable 3kt
Görünürlük >10km
Hava -
Bulutlar Few Clouds 3200ft
Basınç 1019
Değiştir No Significant change
Ham LERI 201000Z VRB03KT 9999 FEW032 SCT036 25/16 Q1019 NOSIG

VFR

25°C / 16°C

[Daha fazla]
Rüzgar 60º variable 360º to 160º 4kt
Görünürlük >10km
Hava -
Bulutlar Scattered Clouds 3200ft
Basınç 1019
Değiştir No Significant change
Ham LERI 200930Z 06004KT 360V160 9999 SCT032 25/16 Q1019 NOSIG

VFR

24°C / 16°C

[Daha fazla]
Rüzgar variable 2kt
Görünürlük >10km
Hava -
Bulutlar Scattered Clouds 3000ft
Basınç 1020
Değiştir No Significant change
Ham LERI 200900Z VRB02KT 9999 SCT030 24/16 Q1020 NOSIG

VFR

24°C / 16°C

[Daha fazla]
Rüzgar variable 0kt
Görünürlük >10km
Hava -
Bulutlar Scattered Clouds 3000ft
Basınç 1019
Değiştir No Significant change
Ham LERI 200830Z 00000KT 9999 SCT030 24/16 Q1019 NOSIG

VFR

23°C / 16°C

[Daha fazla]
Rüzgar variable 1kt
Görünürlük >10km
Hava -
Bulutlar Few Clouds 2400ft
Basınç 1019
Değiştir No Significant change
Ham LERI 200800Z VRB01KT 9999 FEW024 23/16 Q1019 NOSIG

VFR

21°C / 16°C

[Daha fazla]
Rüzgar variable 0kt
Görünürlük >10km
Hava -
Bulutlar Scattered Clouds 2400ft
Basınç 1019
Değiştir No Significant change
Ham LERI 200730Z 00000KT 9999 SCT024 SCT039 21/16 Q1019 NOSIG

Alcantarilla (LERI) için TAF

From till


Maximum Temperature 29ºC on . Minimum Temperature 17ºC on .
From till Wind 340º 5kt. Visibility 10km or more. Scattered Clouds 3000ft.
With 30% probability, Temporarly from till Visibility 2000m. Thunderstorm Rain . Scattered Clouds 3000ft.
With 40% probability, Temporarly from till Visibility 4000m. Showers Rain . Few Clouds 3000ft.
Becoming from till Wind 80º 12kt. Visibility 10km or more. Scattered Clouds 3000ft.
Becoming from till Wind 340º 6kt. Visibility 10km or more. Scattered Clouds 3000ft.

Ham: TAF LERI 210500Z 2106/2206 34005KT 9999 SCT030 TX29/2113Z TN17/2106Z BECMG 2111/2113 08012KT PROB40 TEMPO 2106/2110 4000 SHRA FEW030CB PROB30 TEMPO 2106/2109 2000 TSRA SCT030CB BECMG 2121/2123 34006KT

Alcantarilla için şu anki uydu ve yağmur görüntüleri, İspanya

Konum işaretleyici Alcantarilla üzerine yerleştirilir. [Daha fazla]

Gerçek zamanlı uydu görüntüsü gündüz süresince görülür ışığı gece süresince kızılötesi ışınım ile birleştirir. Gece kızılötesi ışınım sıcaklık farklarını algılayabildiğinden dolayı görüntü karanlık değildir. Ancak düşük bulutları ve sisi yer sıcaklığından ayırmak zordur ve bu nedenle gece boyunca neredeyse görünmez olabilirler. Avrupa için Meteosat uydu görüntüleri gerçek zamanlı olarak her 5 dakikada bir güncellenir. GOES-16/GOES-17 (Kuzey ve Güney Amerika) ve Himawari (Asya) görüntüleri her 10 dakikada bir güncellenir.

Yağış radar ve uydudan tahmin edilir. Uydulardan gece yapılan yağış tahminleri gündüz yapılan tahminlere göre daha az kusursuzdur. Turuncu çarpılar şimşeklerin saptandığı yerleri gösterir (Avrupa üzeri).

Copyright 2021 EUMETSAT / meteoblue. nowcast tarafından sağlanan şimşek verileri.

Alcantarilla için Radar

çiseleyen yağmur
Hafif
Orta
Ağır
Çok ağır
Selamlamak

Konum işaretleyicisi Alcantarilla üzerine yerleştirilir. Bu animasyon son 1 saat içerisindeki yağış radarını gösterir. Radar için çiseleyen yağmur veya hafif kar yağışı görünmez olabilir. Yağış yoğunluğu açık maviden turuncuya değişen renk kodludur.
Radar data source: AEMET.

Güncel hava durumu ve uyarılar

EUMETNET – MeteoAlarm

pictomap

Kaynak: AEMET

Bu web sitesi ve www.meteoalarm.eu web sitesi arasında zaman gecikmeleri olabilir, Ulusal Meteoroloji Servisi tarafından yayınlanan uyarı düzeyleri hakkında en güncel bilgiler için lütfen www.meteoalarm.eu sayfasını kullanın.